Home > Products > Valid Products > TAF

000
FTUS43 KBIS 221900 AAA
TAFJMS
TAF AMD
KJMS 221929Z 2219/2318 06006KT 1/4SM FG VV002
      TEMPO 2219/2220 1/4SM SN FZFG OVC001
     FM222000 02008KT 3/4SM -SN BR OVC003
     FM230200 36016KT 3/4SM -SN OVC008=



000
FTUS43 KBIS 221800 AAA
TAFISN
TAF AMD
KISN 221852Z 2219/2318 33014G19KT P6SM OVC011
      TEMPO 2219/2221 4SM -SN BR OVC009
     FM222100 35017G23KT 3SM -SN OVC015
     FM230300 35015KT P6SM OVC015
     FM231000 32011KT P6SM OVC012=



000
FTUS43 KBIS 221800 AAA
TAFBIS
TAF AMD
KBIS 221851Z 2219/2318 01006KT P6SM OVC007
      TEMPO 2219/2221 4SM BR OVC010
     FM222100 35014KT P6SM OVC011
     FM230000 35018G24KT 1SM -SN BR OVC008=



000
FTUS43 KBIS 221800 AAA
TAFDIK
TAF AMD
KDIK 221849Z 2219/2318 31016G23KT 1/4SM SN FZFG OVC009
      TEMPO 2219/2221 1SM -SN BR OVC011
     FM222100 33019G24KT 1/2SM -SN BLSN OVC008
     FM230600 34015G25KT 2SM -SN OVC008=



000
FTUS43 KBIS 221700
TAFDIK
TAF
KDIK 221725Z 2218/2318 31016G23KT 1SM -SN BR BKN020 OVC035
      TEMPO 2218/2220 1/2SM SN FG BKN015
     FM222000 33019G24KT 3/4SM -SN BLSN OVC008
     FM230600 34015G25KT 2SM -SN OVC008=



000
FTUS43 KBIS 221700
TAFMOT
TAF
KMOT 221725Z 2218/2318 03007KT 2SM BR OVC005
      TEMPO 2218/2221 5SM BR OVC008
     FM222100 36014KT 6SM BR OVC012
     FM230300 34016KT 4SM BR OVC008=



000
FTUS43 KBIS 221700
TAFISN
TAF
KISN 221725Z 2218/2318 33017G22KT 5SM -SN BR OVC009
     FM222100 35017G23KT 3SM -SN OVC015
     FM230300 35015KT P6SM OVC015
     FM231000 32011KT P6SM OVC012=



000
FTUS43 KBIS 221700
TAFJMS
TAF
KJMS 221725Z 2218/2318 06006KT 1/4SM FG VV002
      TEMPO 2218/2220 1/4SM FZFG OVC001
     FM222000 02008KT 3/4SM -SN BR OVC003
     FM230200 36016KT 3/4SM -SN OVC008=



000
FTUS43 KBIS 221700
TAFBIS
TAF
KBIS 221725Z 2218/2318 02006KT 6SM BR OVC005
      TEMPO 2218/2221 2SM BR OVC004
     FM222100 35014KT P6SM OVC008
     FM230000 35018G24KT 1SM -SN BR OVC008=



000
FTUS43 KBIS 221400 AAA
TAFMOT
TAF AMD
KMOT 221422Z 2214/2312 04007KT 3SM BR OVC007
      TEMPO 2214/2218 1/2SM FZFG OVC002
     FM221800 03010KT 4SM -SN BR OVC005
     FM222100 36014KT 6SM -SN BR OVC012
     FM230300 31016KT 4SM -SN BR OVC008=



000
FTUS43 KBIS 221400 AAA
TAFJMS
TAF AMD
KJMS 221421Z 2214/2312 09005KT 1/2SM FG OVC002
      TEMPO 2214/2217 1/4SM FZFG OVC001
     FM221700 04008KT 1SM BR OVC003
     FM222000 01014KT 1SM -SN BR OVC008
     FM230000 36018KT 3/4SM -SN OVC008=



000
FTUS43 KBIS 221400 AAA
TAFBIS
TAF AMD
KBIS 221420Z 2214/2312 13005KT 1SM BR OVC003
      TEMPO 2214/2216 1/2SM FZFG OVC004
     FM221600 05005KT 2SM -SN BR OVC008
     FM221800 01014KT 1SM -SN BR OVC008
     FM230000 35018G24KT 1SM -SN BR OVC008=



000
FTUS43 KBIS 221100
TAFBIS
TAF
KBIS 221140Z 2212/2312 13005KT 3/4SM BR OVC003
      TEMPO 2212/2215 1/4SM FZFG OVC001
     FM221500 05005KT 2SM -SN BR OVC010
     FM221800 01014KT 1SM -SN BR OVC008
     FM230000 35018G24KT 1SM -SN BR OVC008=



000
FTUS43 KBIS 221100
TAFMOT
TAF
KMOT 221140Z 2212/2312 06007KT 1SM BR OVC002
      TEMPO 2212/2216 1/2SM FZFG OVC001
     FM221600 03010KT 4SM -SN BR OVC005
     FM222100 36014KT 6SM -SN BR OVC012
     FM230300 31016KT 4SM -SN BR OVC008=



000
FTUS43 KBIS 221100
TAFDIK
TAF
KDIK 221140Z 2212/2312 30020G26KT 2SM -SN BKN008 OVC012
      TEMPO 2212/2216 1SM -SN OVC006
     FM221600 33024G30KT 3/4SM -SN BLSN OVC008
     FM230600 34015G25KT 5SM -SN OVC008=



000
FTUS43 KBIS 221100
TAFJMS
TAF
KJMS 221140Z 2212/2312 09005KT 2SM BR BKN003 OVC010
      TEMPO 2212/2216 1/2SM FZFG OVC001
     FM221600 04008KT 1SM BR OVC005
     FM222000 01014KT 1SM -SN BR OVC008
     FM230000 36018KT 3/4SM -SN OVC008=



000
FTUS43 KBIS 221100
TAFISN
TAF
KISN 221140Z 2212/2312 30015KT 2SM -SN BKN007 OVC013
      TEMPO 2212/2216 5SM -SN OVC015
     FM221600 33018KT 1SM -SN BKN008 OVC012
     FM230000 35016KT 5SM -SN OVC008
     FM230600 35013KT P6SM OVC015=



000
FTUS43 KBIS 221000 AAA
TAFBIS
TAF AMD
KBIS 221039Z 2211/2306 10005KT 1SM BR OVC003
      TEMPO 2211/2214 1/2SM FZFG OVC002
     FM221400 35011KT 3SM -SN BR OVC012
     FM230000 36016KT 2SM -SN BR OVC008=



000
FTUS43 KBIS 221000 AAA
TAFISN
TAF AMD
KISN 221037Z 2211/2306 29010KT 2SM -SN BKN007 OVC013
      TEMPO 2211/2215 5SM -SN OVC015
     FM221500 33016KT 1SM -SN SCT008 OVC012
     FM230000 35016KT P6SM -SN OVC008=



000
FTUS43 KBIS 221000 AAA
TAFDIK
TAF AMD
KDIK 221035Z 2211/2306 30018KT P6SM SCT008 OVC012
      TEMPO 2211/2214 3SM -SN OVC008
     FM221400 31016G22KT 4SM -SN OVC008
     FM221900 35022G33KT 3/4SM -SN BLSN VV008=



000
FTUS43 KBIS 220500
TAFJMS
TAF
KJMS 220539Z 2206/2306 12009KT 2SM BR OVC002
     FM220800 10006KT 1SM BR OVC002
     FM221000 08007KT 1/2SM FG OVC001
     FM221800 04012KT 1SM -SN BR OVC005
     FM230000 36015KT 1SM -SN BR OVC008=



000
FTUS43 KBIS 220500
TAFBIS
TAF
KBIS 220539Z 2206/2306 15006KT 2SM BR OVC002
     FM221000 10007KT 2SM BR OVC002
      TEMPO 2210/2214 3SM -FZRASN SCT002 OVC005
     FM221400 35011KT 1SM -SN BR OVC012
     FM230000 36016KT 2SM -SN BR OVC008=



000
FTUS43 KBIS 220500
TAFMOT
TAF
KMOT 220539Z 2206/2306 12007KT 2SM BR OVC002
      TEMPO 2206/2210 3/4SM BR
     FM221000 12008KT 2SM BR VCSH OVC002
      TEMPO 2210/2214 1SM -FZRASN BR
     FM221400 35010KT 2SM -SN BR OVC005=



000
FTUS43 KBIS 220500
TAFISN
TAF
KISN 220539Z 2206/2306 28003KT P6SM VCSH SCT025 OVC070
      TEMPO 2206/2209 -FZRAPL OVC025
     FM220900 30007KT 3SM -SN OVC020
     FM221500 33016KT 1SM -SN SCT008 OVC012
     FM230000 35016KT P6SM -SN OVC008=



000
FTUS43 KBIS 220500
TAFDIK
TAF
KDIK 220539Z 2206/2306 27007KT P6SM BKN003 OVC010
      TEMPO 2206/2210 5SM -RA OVC020
     FM221000 30013KT 1SM -SN BKN008 OVC012
     FM221400 31016G22KT 4SM -SN OVC008
     FM221900 35022G33KT 3/4SM -SN BLSN VV008=



000
FTUS43 KBIS 220400 AAB
TAFDIK
TAF AMD
KDIK 220449Z 2205/2224 27007KT P6SM SCT005 OVC010
     FM220800 30011KT 1SM -SN BKN008 OVC012
     FM221400 31015G20KT 4SM -SN OVC008
     FM221900 35022G33KT 3/4SM -SN BLSN VV008=



000
FTUS43 KBIS 220400 AAD
TAFMOT
TAF AMD
KMOT 220448Z 2205/2224 12009KT 4SM BR OVC002
     FM220800 08008KT 1SM -SN BR OVC002
     FM221200 35010KT 2SM -SN BR OVC005=



000
FTUS43 KBIS 220300 AAA
TAFISN
TAF AMD
KISN 220351Z 2204/2224 12003KT P6SM OVC060
     FM220500 VRB03KT P6SM VCSH SCT035 OVC070
      TEMPO 2205/2207 -RAPL OVC035
     FM220700 02007KT 3SM -SN OVC020
     FM221500 33016KT 1SM -SN SCT008 OVC012=



000
FTUS43 KBIS 220300 AAA
TAFISN
TAF AMD
KISN 220351Z 2204/2224 12003KT P6SM OVC060
     FM220500 VRB03KT P6SM VCSH SCT035 OVC070
      TEMPO 2205/2207 -RAPL OVC035
     FM220700 02007KT 3SM -SN OVC020
     FM221500 33016KT 1SM -SN SCT008 OVC012=



000
FTUS43 KBIS 220300 AAC
TAFMOT
TAF AMD
KMOT 220350Z 2204/2224 12007KT 2SM BR OVC001
     FM220800 08008KT 1SM -SN BR OVC002
     FM221200 35010KT 2SM -SN BR OVC005=



000
FTUS43 KBIS 220300 AAC
TAFMOT
TAF AMD
KMOT 220350Z 2204/2224 12007KT 2SM BR OVC001
     FM220800 08008KT 1SM -SN BR OVC002
     FM221200 35010KT 2SM -SN BR OVC005=



000
FTUS43 KBIS 220300 AAB
TAFJMS
TAF AMD
KJMS 220349Z 2204/2224 13009KT 3SM BR OVC002
     FM220800 07006KT 1/4SM -SN FZFG OVC002
     FM221800 04012KT 1SM -SN BR OVC005=



000
FTUS43 KBIS 220300 AAA
TAFBIS
TAF AMD
KBIS 220327Z 2203/2224 15006KT 2SM BR OVC002
     FM221000 05007KT 1SM -SN BR SCT002 OVC005
     FM221300 35011KT 1SM -SN BR OVC008=



000
FTUS43 KBIS 220200 AAB
TAFMOT
TAF AMD
KMOT 220212Z 2202/2224 11011KT 1/2SM FZFG VV002
     FM220800 08008KT 1SM -SN BR OVC002
     FM221200 35010KT 2SM -SN BR OVC005=



000
FTUS43 KBIS 220200 AAB
TAFMOT
TAF AMD
KMOT 220212Z 2202/2224 11011KT 1/2SM FZFG VV002
     FM220800 08008KT 1SM -SN BR OVC002
     FM221200 35010KT 2SM -SN BR OVC005=



000
FTUS43 KBIS 220100 AAA
TAFDIK
TAF AMD
KDIK 220151Z 2202/2224 22006KT P6SM -RA BKN020 OVC028
     FM220400 24005KT 5SM -RASN OVC020
     FM220600 30011KT 1SM -SN BKN008 OVC012
     FM221400 31015G20KT 4SM -SN OVC008
     FM221900 35022G33KT 3/4SM -SN BLSN VV008=



000
FTUS43 KBIS 220100 AAA
TAFDIK
TAF AMD
KDIK 220151Z 2202/2224 22006KT P6SM -RA BKN020 OVC028
     FM220400 24005KT 5SM -RASN OVC020
     FM220600 30011KT 1SM -SN BKN008 OVC012
     FM221400 31015G20KT 4SM -SN OVC008
     FM221900 35022G33KT 3/4SM -SN BLSN VV008=



000
FTUS43 KBIS 220100 AAA
TAFMOT
TAF AMD
KMOT 220150Z 2202/2224 11011KT 1 1/2SM BR OVC001
     FM220800 08008KT 1SM -SN BR OVC002
     FM221200 35010KT 2SM -SN BR OVC005=



000
FTUS43 KBIS 220100 AAA
TAFMOT
TAF AMD
KMOT 220150Z 2202/2224 11011KT 1 1/2SM BR OVC001
     FM220800 08008KT 1SM -SN BR OVC002
     FM221200 35010KT 2SM -SN BR OVC005=



000
FTUS43 KBIS 220100 AAA
TAFJMS
TAF AMD
KJMS 220101Z 2201/2224 13012KT 1SM BR VV002
     FM220400 12011KT 1/2SM -FZDZ FZFG OVC002
     FM220800 07006KT 1/4SM -SN FZFG OVC002
     FM221800 04012KT 1SM -SN BR OVC005=



000
FTUS43 KBIS 220100 AAA
TAFJMS
TAF AMD
KJMS 220101Z 2201/2224 13012KT 1SM BR VV002
     FM220400 12011KT 1/2SM -FZDZ FZFG OVC002
     FM220800 07006KT 1/4SM -SN FZFG OVC002
     FM221800 04012KT 1SM -SN BR OVC005=



000
FTUS43 KBIS 220100 AAA
TAFBIS
TAF AMD
KBIS 220100Z 2201/2224 15010KT P6SM OVC004
     FM220300 11007KT 5SM BR OVC003
     FM220800 05007KT 1SM -SN BR SCT002 OVC009
     FM221300 35011KT 1SM -SN BR OVC008=



000
FTUS43 KBIS 220100 AAA
TAFBIS
TAF AMD
KBIS 220100Z 2201/2224 15010KT P6SM OVC004
     FM220300 11007KT 5SM BR OVC003
     FM220800 05007KT 1SM -SN BR SCT002 OVC009
     FM221300 35011KT 1SM -SN BR OVC008=



000
FTUS43 KBIS 212300
TAFISN
TAF
KISN 212334Z 2200/2224 00000KT P6SM OVC100
     FM220200 VRB03KT P6SM VCSH SCT035 OVC070
      TEMPO 2202/2204 -RAPL OVC035
     FM220400 02007KT 3SM -SN OVC020
     FM221500 33016KT 1SM -SN SCT008 OVC012=



000
FTUS43 KBIS 212300
TAFDIK
TAF
KDIK 212334Z 2200/2224 18004KT P6SM VCSH BKN080
     FM220200 19011KT P6SM -RA BKN035 OVC070
     FM220400 24005KT 5SM -RASN OVC020
     FM220600 30011KT 1SM -SN BKN008 OVC012
     FM221400 31015G20KT 4SM -SN OVC008
     FM221900 35022G33KT 3/4SM -SN BLSN VV008=



000
FTUS43 KBIS 212300
TAFJMS
TAF
KJMS 212334Z 2200/2224 12006KT 6SM BR OVC006
     FM220200 14010KT 4SM BR OVC005
     FM220400 12011KT 1/2SM -FZDZ FZFG OVC002
     FM220800 07006KT 1/4SM -SN FZFG OVC002
     FM221800 04012KT 1SM -SN BR OVC005=



000
FTUS43 KBIS 212300
TAFBIS
TAF
KBIS 212334Z 2200/2224 12006KT P6SM SCT006 BKN150
     FM220130 14010KT P6SM BKN006
     FM220300 11007KT 5SM BR OVC003
     FM220800 05007KT 1SM -SN BR SCT002 OVC009
     FM221300 35011KT 1SM -SN BR OVC008=



000
FTUS43 KBIS 212300
TAFMOT
TAF
KMOT 212334Z 2200/2224 08007KT P6SM OVC100
     FM220200 11004KT 6SM BR BKN004 OVC010
     FM220800 08008KT 4SM -SN BR SCT005 OVC011
     FM221200 35010KT 2SM -SN BR OVC005=



000
FTUS43 KBIS 211700
TAFJMS
TAF
KJMS 211740Z 2118/2218 15011KT 1/2SM FZFG OVC002
      TEMPO 2118/2122 1/4SM FZFG OVC003
     FM212200 14010KT 4SM BR OVC005
      TEMPO 2123/2202 1SM BR OVC002
     FM220200 12011KT 1/2SM -FZDZ FZFG OVC002
     FM220800 07006KT 1/4SM -SN FZFG OVC002=



000
FTUS43 KBIS 211700
TAFISN
TAF
KISN 211740Z 2118/2218 16004KT P6SM OVC080
     FM212200 VRB03KT P6SM VCSH BKN045 OVC070
      TEMPO 2122/2202 -RAPL SCT035 OVC050
     FM220200 02007KT 3SM -SN BKN020 OVC030
     FM220600 33011KT 3SM -SN SCT008 OVC012=



000
FTUS43 KBIS 211700
TAFDIK
TAF
KDIK 211740Z 2118/2218 18011KT P6SM OVC080
     FM212200 19011KT P6SM -RA BKN035 OVC070
     FM220100 24005KT 5SM -RASN OVC020
     FM220600 30011KT 1SM -SN BKN008 OVC012
     FM221200 31015G20KT 1SM -SN OVC009=



000
FTUS43 KBIS 211700
TAFMOT
TAF
KMOT 211740Z 2118/2218 16007KT P6SM SCT080
     FM212000 14006KT P6SM OVC080
     FM220300 11004KT P6SM BKN004 OVC010
     FM220800 08008KT 4SM -SN BR SCT003 OVC011
     FM221200 35010KT 2SM -SN BR OVC002=



000
FTUS43 KBIS 211700
TAFBIS
TAF
KBIS 211740Z 2118/2218 14007KT P6SM SCT080
     FM212100 14010KT P6SM FEW015 OVC070
      TEMPO 2200/2203 BKN005
     FM220300 11007KT P6SM VCSH OVC003
     FM220800 05007KT 1SM -SN BR SCT002 OVC009
     FM221300 35011KT 1SM -SN BR OVC008=



000
FTUS43 KBIS 211500 AAA
TAFJMS
TAF AMD
KJMS 211510Z 2115/2212 17009KT 1/4SM FZFG OVC002
      TEMPO 2115/2118 3/4SM BR OVC004
     FM211800 16011KT 1SM BR OVC005
     FM212100 14010KT 5SM BR OVC015
     FM220200 14012KT P6SM SCT030 SCT070
     FM220800 12010KT 3SM BR OVC015=



000
FTUS43 KBIS 211100
TAFMOT
TAF
KMOT 211136Z 2112/2212 20004KT P6SM SCT080
     FM211600 17008KT P6SM BKN080
     FM220300 14008KT P6SM VCSH BKN030 OVC080
     FM220800 08008KT 5SM -SN BR OVC015=



000
FTUS43 KBIS 211100
TAFBIS
TAF
KBIS 211136Z 2112/2212 09005KT P6SM SCT070
     FM211500 12008KT P6SM BKN070
     FM212100 15012KT P6SM SCT040 OVC070
     FM220300 12008KT P6SM VCSH BKN035 OVC050
     FM220800 07007KT 3SM -SN BR OVC015=



000
FTUS43 KBIS 211100
TAFJMS
TAF
KJMS 211136Z 2112/2212 18010KT P6SM SCT002
      TEMPO 2112/2116 2SM BR OVC002
     FM211600 16012KT 3SM BR OVC005
     FM212100 14010KT 5SM BR OVC015
     FM220200 14012KT P6SM SCT030 SCT070
     FM220800 12010KT 3SM BR OVC015=



000
FTUS43 KBIS 211100
TAFISN
TAF
KISN 211136Z 2112/2212 20005KT P6SM SKC
     FM211700 16006KT P6SM SCT035 BKN080
     FM212000 16008KT P6SM VCSH BKN035 OVC050
     FM220300 02008KT P6SM -SN BKN020 OVC030
     FM220600 34010KT 4SM -SN OVC012=



000
FTUS43 KBIS 211100
TAFDIK
TAF
KDIK 211136Z 2112/2212 17010KT P6SM SCT080
     FM211700 19009KT P6SM SCT030 BKN080
     FM212000 17012KT P6SM -SHRA BKN025 OVC050
     FM220300 VRB05KT P6SM -SN OVC020
     FM220700 33014KT 3SM -SN OVC012=



000
FTUS43 KBIS 210900 AAA
TAFMOT
TAF AMD
KMOT 210946Z 2110/2206 21006KT P6SM SKC
      TEMPO 2110/2114 3SM BR FEW010
     FM211600 14008KT P6SM SCT010 BKN100
     FM220200 11008KT P6SM VCSH BKN030 OVC080=



000
FTUS43 KBIS 210900 AAA
TAFMOT
TAF AMD
KMOT 210946Z 2110/2206 21006KT P6SM SKC
      TEMPO 2110/2114 3SM BR FEW010
     FM211600 14008KT P6SM SCT010 BKN100
     FM220200 11008KT P6SM VCSH BKN030 OVC080=



000
FTUS43 KBIS 210500
TAFBIS
TAF
KBIS 210530Z 2106/2206 12005KT P6SM SCT150
     FM211400 15008KT P6SM SCT090 BKN120
     FM212100 14012KT P6SM SCT040 BKN070
     FM220300 11008KT P6SM VCSH BKN035 OVC050=



000
FTUS43 KBIS 210500
TAFJMS
TAF
KJMS 210530Z 2106/2206 18010KT 6SM BR SCT004
      TEMPO 2106/2109 1SM BR OVC002
     FM210900 19006KT 1SM BR OVC002
     FM211600 16010KT P6SM OVC015
     FM212100 14012KT P6SM SCT030 SCT070
     FM220200 12010KT 3SM BR OVC020=



000
FTUS43 KBIS 210500
TAFMOT
TAF
KMOT 210530Z 2106/2206 21006KT P6SM SKC
      TEMPO 2106/2110 6SM BR FEW010
     FM211000 17004KT 2SM BR OVC010
     FM211600 14008KT P6SM SCT010 BKN100
     FM220200 11008KT P6SM VCSH BKN030 OVC080=



000
FTUS43 KBIS 210500
TAFDIK
TAF
KDIK 210530Z 2106/2206 23007KT P6SM SCT150
     FM211500 19009KT P6SM SCT030 BKN080
     FM212000 17012KT P6SM -SHRA BKN025 OVC050
     FM220300 VRB05KT P6SM -SHRASN OVC020=



000
FTUS43 KBIS 210500
TAFISN
TAF
KISN 210530Z 2106/2206 20005KT P6SM SKC
     FM211500 16006KT P6SM SCT035 BKN080
     FM211800 16008KT P6SM VCSH BKN035 OVC050
     FM220300 02008KT P6SM -SN BKN025 OVC035=



000
FTUS43 KBIS 210300 AAB
TAFJMS
TAF AMD
KJMS 210331Z 2104/2124 18010KT 2SM BR OVC003
     FM210600 19006KT 1SM BR OVC002
     FM211600 16010KT P6SM OVC015=



000
FTUS43 KBIS 210300 AAB
TAFJMS
TAF AMD
KJMS 210331Z 2104/2124 18010KT 2SM BR OVC003
     FM210600 19006KT 1SM BR OVC002
     FM211600 16010KT P6SM OVC015=



000
FTUS43 KBIS 210300 AAC
TAFMOT
TAF AMD
KMOT 210324Z 2103/2124 22007KT P6SM SCT030 OVC060
     FM210600 24005KT 6SM BR FEW010
     FM211000 17004KT 2SM BR OVC010
     FM211800 14008KT P6SM SCT010 BKN100=



000
FTUS43 KBIS 210300 AAC
TAFMOT
TAF AMD
KMOT 210324Z 2103/2124 22007KT P6SM SCT030 OVC060
     FM210600 24005KT 6SM BR FEW010
     FM211000 17004KT 2SM BR OVC010
     FM211800 14008KT P6SM SCT010 BKN100=



000
FTUS43 KBIS 210200 AAB
TAFMOT
TAF AMD
KMOT 210243Z 2103/2124 21008KT 5SM -FZRA BR OVC023
     FM210400 24005KT 6SM BR FEW010
     FM211000 17004KT 2SM BR OVC010
     FM211800 14008KT P6SM SCT010 BKN100=



000
FTUS43 KBIS 210200 AAA
TAFJMS
TAF AMD
KJMS 210204Z 2102/2124 18012KT 4SM BR OVC003
     FM210400 21006KT 3SM BR SCT008
     FM210600 19006KT 2SM BR OVC003
     FM211300 16010KT P6SM OVC015=



000
FTUS43 KBIS 210000 AAA
TAFMOT
TAF AMD
KMOT 210014Z 2100/2124 16006KT P6SM SKC
     FM210115 23005KT P6SM VCSH SCT020 BKN060
     FM210130 24008KT 3SM -SN OVC020
     FM210300 24005KT 6SM BR FEW010
     FM211000 17004KT 2SM BR OVC010
     FM211800 14008KT P6SM SCT010 BKN100=



000
FTUS43 KBIS 202300
TAFISN
TAF
KISN 202337Z 2100/2124 25006KT P6SM SCT060
     FM210800 16005KT P6SM SCT100 SCT180
     FM211400 16004KT P6SM SCT060 BKN100
     FM212200 16010KT P6SM VCSH SCT030 OVC050=



000
FTUS43 KBIS 202300
TAFBIS
TAF
KBIS 202337Z 2100/2124 12005KT P6SM SCT150
     FM210300 20005KT P6SM FEW300
     FM211400 15008KT P6SM SCT090 BKN120=



000
FTUS43 KBIS 202300
TAFJMS
TAF
KJMS 202337Z 2100/2124 17010KT 6SM BR OVC006
     FM210300 21006KT P6SM SCT008
     FM210700 19006KT 4SM BR BKN005
     FM211300 16010KT P6SM OVC015=



000
FTUS43 KBIS 202300
TAFDIK
TAF
KDIK 202337Z 2100/2124 25008KT P6SM SCT150
     FM211500 20009KT P6SM SCT090 BKN110
     FM212000 21012KT P6SM -SHRA SCT040 BKN060=



000
FTUS43 KBIS 202300
TAFMOT
TAF
KMOT 202337Z 2100/2124 17003KT 4SM BR SCT080
     FM210100 23005KT P6SM VCSH SCT045 BKN060
     FM210300 24005KT 6SM BR FEW010
     FM211000 17004KT 2SM BR OVC010
     FM211800 14008KT P6SM SCT010 BKN100=



000
FTUS43 KBIS 202100 AAB
TAFJMS
TAF AMD
KJMS 202121Z 2021/2118 16009KT 5SM HZ VCSH BKN005
     FM210000 19006KT P6SM SCT005 OVC070
     FM210500 21006KT P6SM FEW090
     FM211100 19004KT P6SM FEW250=



000
FTUS43 KBIS 201900 AAA
TAFJMS
TAF AMD
KJMS 201937Z 2020/2118 17009KT 1 1/2SM BR VCSH OVC002
      TEMPO 2020/2021 4SM BR SCT002 BKN090
     FM202100 18006KT P6SM VCSH SCT004 OVC080
     FM210000 19006KT P6SM SCT070
     FM210500 21006KT P6SM FEW090
     FM211100 19004KT P6SM FEW250=



000
FTUS43 KBIS 201900 AAA
TAFDIK
TAF AMD
KDIK 201936Z 2020/2118 27010KT P6SM FEW100
     FM210100 21007KT P6SM SCT250
     FM211000 19008KT P6SM SCT120 SCT200
     FM211500 20009KT P6SM SCT090 BKN110=



000
FTUS43 KBIS 201900 AAA
TAFMOT
TAF AMD
KMOT 201936Z 2020/2118 17007KT P6SM BKN060 OVC090
     FM202100 21008KT P6SM FEW040 SCT070
     FM210200 23005KT P6SM VCSH SCT045 BKN060
     FM210500 24005KT P6SM FEW150
     FM211300 17008KT P6SM FEW120=



000
FTUS43 KBIS 201900 AAA
TAFISN
TAF AMD
KISN 201935Z 2020/2118 21005KT P6SM FEW140
     FM202100 24007KT P6SM VCSH SCT050 BKN070
     FM210000 24006KT P6SM FEW070
     FM210800 16005KT P6SM SCT100 SCT180
     FM211400 16004KT P6SM SCT060 BKN100=



000
FTUS43 KBIS 201900 AAA
TAFBIS
TAF AMD
KBIS 201934Z 2020/2118 21005KT P6SM SCT070 SCT300
     FM210300 20005KT P6SM FEW300
     FM211400 15008KT P6SM SCT090 BKN120=



000
FTUS43 KBIS 201700
TAFISN
TAF
KISN 201720Z 2018/2118 21005KT P6SM FEW140
     FM202100 24007KT P6SM SCT050 BKN070
     FM210000 24006KT P6SM FEW070
     FM210800 16005KT P6SM SCT100 SCT180
     FM211400 16004KT P6SM SCT060 BKN100=



000
FTUS43 KBIS 201700
TAFBIS
TAF
KBIS 201720Z 2018/2118 08005KT P6SM FEW005 BKN070 OVC100
      TEMPO 2018/2020 20005KT P6SM OVC080
     FM202000 21006KT P6SM VCSH SCT050 BKN070
     FM202200 21005KT P6SM FEW060 SCT300
     FM210300 20005KT P6SM FEW300
     FM211400 15008KT P6SM SCT090 BKN120=



000
FTUS43 KBIS 201700
TAFJMS
TAF
KJMS 201720Z 2018/2118 17009KT 1/4SM FZFG OVC002
      TEMPO 2020/2021 4SM BR SCT002 BKN090
     FM202100 18006KT P6SM VCSH SCT004 OVC080
     FM210500 21006KT P6SM SCT090
     FM211100 19004KT P6SM FEW250=



000
FTUS43 KBIS 201700
TAFDIK
TAF
KDIK 201720Z 2018/2118 25010KT P6SM FEW100
     FM210100 21007KT P6SM SCT250
     FM211000 19008KT P6SM SCT120 SCT200
     FM211500 20009KT P6SM SCT090 BKN110=



000
FTUS43 KBIS 201700
TAFMOT
TAF
KMOT 201720Z 2018/2118 20007KT P6SM VCSH BKN060 OVC090
     FM202100 21008KT P6SM FEW040 SCT070
     FM210300 24005KT P6SM FEW150
     FM211300 17008KT P6SM FEW120=



000
FTUS43 KBIS 201700 AAB
TAFMOT
TAF AMD
KMOT 201709Z 2017/2112 16006KT 1SM BR OVC002
      TEMPO 2017/2018 19008KT 4SM BR SCT002 BKN025 OVC060
     FM201800 20007KT P6SM VCSH BKN060 OVC090
     FM202100 21008KT P6SM FEW040 SCT070
     FM210300 24005KT P6SM FEW150=



000
FTUS43 KBIS 201600 AAA
TAFBIS
TAF AMD
KBIS 201651Z 2017/2112 08005KT P6SM FEW005 BKN070 OVC100
      TEMPO 2017/2020 20005KT P6SM OVC080
     FM202000 21006KT P6SM VCSH SCT050 BKN070
     FM202200 21005KT P6SM FEW060 SCT300
     FM210300 20005KT P6SM FEW300=



000
FTUS43 KBIS 201200 AAA
TAFBIS
TAF AMD
KBIS 201253Z 2013/2112 10003KT 1SM BR OVC002
     FM201700 18005KT P6SM VCSH SCT005 BKN100
     FM202000 21007KT P6SM VCSH SCT050 BKN070
     FM210300 25006KT P6SM SCT100 BKN250=



000
FTUS43 KBIS 201200 AAA
TAFMOT
TAF AMD
KMOT 201231Z 2013/2112 14006KT 1/4SM FZFG OVC001
     FM201400 16006KT 1SM BR OVC002
     FM201700 19007KT P6SM VCSH BKN060 OVC100
     FM210400 25005KT P6SM BKN100=



000
FTUS43 KBIS 201200 AAA
TAFISN
TAF AMD
KISN 201217Z 2012/2112 VRB03KT P6SM BKN070
     FM201500 20005KT P6SM VCSH SCT050 BKN080
     FM201800 23008KT P6SM VCSH SCT035 BKN050
     FM210000 25007KT P6SM SCT050 SCT080=



000
FTUS43 KBIS 201100
TAFJMS
TAF
KJMS 201122Z 2012/2112 16004KT 1/4SM FZFG OVC002
      TEMPO 2016/2020 1SM BR OVC004
     FM202000 18006KT 3SM BR BKN006
     FM202200 21006KT P6SM SCT010 BKN070 OVC100
     FM210600 24006KT P6SM SCT100 BKN250=



000
FTUS43 KBIS 201100
TAFMOT
TAF
KMOT 201122Z 2012/2112 16006KT 1/4SM FZFG OVC001
      TEMPO 2016/2018 2SM BR OVC005
     FM201800 19007KT P6SM VCSH BKN060 OVC100
     FM210400 25005KT P6SM BKN100=



000
FTUS43 KBIS 201100
TAFBIS
TAF
KBIS 201122Z 2012/2112 10003KT 1SM BR OVC002
      TEMPO 2012/2016 1/4SM FZFG OVC001
     FM201700 18005KT P6SM VCSH SCT005 BKN100
     FM202000 21007KT P6SM VCSH SCT050 BKN070
     FM210300 25006KT P6SM SCT100 BKN250=



000
FTUS43 KBIS 201100
TAFISN
TAF
KISN 201122Z 2012/2112 12005KT P6SM VCSH SCT002 BKN100
      TEMPO 2012/2015 2SM BR OVC002
     FM201500 20005KT P6SM VCSH SCT050 BKN080
     FM201800 23008KT P6SM VCSH SCT035 BKN050
     FM210000 25007KT P6SM SCT050 SCT080=



000
FTUS43 KBIS 201100
TAFDIK
TAF
KDIK 201122Z 2012/2112 18006KT P6SM SCT070 BKN100
     FM201500 23007KT P6SM VCSH SCT040 BKN070 OVC100
     FM202100 25013KT P6SM SCT100 BKN250
     FM210600 19008KT P6SM SCT250=



000
FTUS43 KBIS 200500
TAFBIS
TAF
KBIS 200521Z 2006/2106 12003KT 3SM BR BKN002
      TEMPO 2006/2009 1/4SM FZFG OVC001
     FM200900 VRB03KT 1/4SM FZFG OVC002
     FM201700 20005KT P6SM SCT005 BKN150=



000
FTUS43 KBIS 200500
TAFISN
TAF
KISN 200521Z 2006/2106 00000KT 1/4SM FZFG VV001
      TEMPO 2006/2010 2SM BR OVC002
     FM201000 20004KT 3SM BR BKN008
     FM201400 22005KT P6SM BKN100
     FM201800 24008KT P6SM SCT005 BKN100=



000
FTUS43 KBIS 200500
TAFJMS
TAF
KJMS 200521Z 2006/2106 22004KT 1/4SM FZFG OVC002
      TEMPO 2006/2010 2SM BR OVC004
     FM201000 18003KT 1/4SM FZFG OVC001
     FM202000 17006KT 3SM BR BKN006
     FM202200 18006KT P6SM SCT010 BKN120=



000
FTUS43 KBIS 200500
TAFMOT
TAF
KMOT 200521Z 2006/2106 20006KT 2SM BR OVC002
      TEMPO 2006/2010 1/4SM FZFG OVC001
     FM201000 VRB03KT 1/4SM FZFG OVC001
     FM201600 22005KT 2SM BR OVC002
     FM201800 23007KT P6SM BKN100
     FM210000 25005KT P6SM BKN100=



000
FTUS43 KBIS 200500
TAFDIK
TAF
KDIK 200521Z 2006/2106 17005KT P6SM SKC
     FM200900 21007KT P6SM BKN100 OVC250
     FM201500 26013KT P6SM SCT100 BKN250
     FM210100 24008KT P6SM SCT250=



000
FTUS43 KBIS 200400 AAB
TAFJMS
TAF AMD
KJMS 200406Z 2004/2024 19004KT 1/4SM FZFG OVC002
      TEMPO 2004/2008 2SM BR OVC005
     FM200800 17003KT 1/4SM FZFG OVC001
     FM201800 17006KT P6SM SCT100=



000
FTUS43 KBIS 200400 AAA
TAFMOT
TAF AMD
KMOT 200404Z 2004/2024 00000KT 2SM BR OVC003
      TEMPO 2004/2008 1/4SM FZFG OVC001
     FM200800 VRB03KT 1/4SM FZFG OVC001
     FM201400 14005KT 2SM BR OVC002
     FM201800 17007KT P6SM BKN008
     FM202000 17008KT P6SM BKN020=



000
FTUS43 KBIS 200400 AAA
TAFMOT
TAF AMD
KMOT 200404Z 2004/2024 00000KT 2SM BR OVC003
      TEMPO 2004/2008 1/4SM FZFG OVC001
     FM200800 VRB03KT 1/4SM FZFG OVC001
     FM201400 14005KT 2SM BR OVC002
     FM201800 17007KT P6SM BKN008
     FM202000 17008KT P6SM BKN020=



000
FTUS43 KBIS 200400 AAA
TAFISN
TAF AMD
KISN 200403Z 2004/2024 VRB03KT 1/4SM FZFG OVC001
      TEMPO 2004/2008 3SM BR OVC002
     FM200800 VRB03KT 1/2SM FZFG OVC002
     FM201800 24008KT P6SM SCT005 BKN100=



000
FTUS43 KBIS 200400 AAA
TAFISN
TAF AMD
KISN 200403Z 2004/2024 VRB03KT 1/4SM FZFG OVC001
      TEMPO 2004/2008 3SM BR OVC002
     FM200800 VRB03KT 1/2SM FZFG OVC002
     FM201800 24008KT P6SM SCT005 BKN100=



000
FTUS43 KBIS 200300 AAA
TAFBIS
TAF AMD
KBIS 200311Z 2003/2024 09003KT P6SM SKC
     FM200500 VRB03KT 4SM BR OVC005
     FM202000 20005KT P6SM SCT005 BKN150=



000
FTUS43 KBIS 200200 AAA
TAFJMS
TAF AMD
KJMS 200224Z 2002/2024 19004KT 1/4SM FZFG VV002
      TEMPO 2002/2005 4SM BR OVC005
     FM200500 17003KT 2SM BR OVC003
     FM201800 17006KT P6SM SCT100=



000
FTUS43 KBIS 192300
TAFDIK
TAF
KDIK 192339Z 2000/2024 24005KT P6SM SKC
     FM200300 18005KT P6SM FEW080
     FM201800 27012KT P6SM SCT100=



000
FTUS43 KBIS 192300
TAFMOT
TAF
KMOT 192339Z 2000/2024 00000KT 3SM BR OVC003
     FM200900 VRB03KT 1/4SM FZFG OVC001
     FM201400 14005KT 2SM BR OVC002
     FM201800 17007KT P6SM BKN008
     FM202000 17008KT P6SM BKN020=



000
FTUS43 KBIS 192300
TAFBIS
TAF
KBIS 192339Z 2000/2024 09003KT P6SM SKC
     FM200300 VRB03KT 4SM BR OVC005
     FM202000 20005KT P6SM SCT005 BKN150=



000
FTUS43 KBIS 192300
TAFJMS
TAF
KJMS 192339Z 2000/2024 18007KT P6SM SCT070
      TEMPO 2000/2003 4SM BR OVC005
     FM200300 18006KT 3SM BR OVC005
      TEMPO 2003/2005 1/2SM FZFG OVC003
     FM200500 17003KT 2SM BR OVC003
     FM201800 17006KT P6SM SCT100=



000
FTUS43 KBIS 192300
TAFISN
TAF
KISN 192339Z 2000/2024 VRB03KT 1/4SM FZFG OVC001
      TEMPO 2000/2004 3SM BR OVC002
     FM200400 VRB03KT 1/2SM FZFG OVC002
     FM201800 24008KT P6SM SCT005 BKN100=



    US Dept of Commerce
    National Oceanic and Atmospheric Administration
    National Weather Service
    1325 East West Highway
    Silver Spring, MD 20910
    Page Author: NWS Internet Services Team
Disclaimer
Information Quality
Credits
Glossary
Privacy Policy
Freedom of Information Act (FOIA)
About Us
Career Opportunities